Tiempo atmosférico en la estación meteorológica de Figueres, Girona (47 m.)



Fecha
DESCASC
Temp. máxima en grados centígrados (hora)
DESCASC
Temp. mínima en grados centígrados (hora)
DESCASC
Temp. media en grados centígrados
DESCASC
Racha de viento máxima en m/sg (hora)
DESCASC
Velocidad máxima media en intervalos de 10 minutos(hora)
DESCASC
Precipitaciones diarias en mm
DESCASC
Precipitaciones de 00:00 a 06:00 en mm
DESCASC
Precipitaciones de 06:00 a 12:00 en mm
DESCASC
Precipitaciones de 12:00 a 18:00 en mm
DESCASC
Precipitaciones de 18:00 a 24:00 en mm
DESCASC
10-07-2020 30 (12:10) 20.7 (04:50) 25.4 9.44 (16:10) 3.33 (23:59) 0 0 0 0 0
09-07-2020 31.9 (13:00) 20.6 (06:40) 26.3 6.11 (13:20) 3.33 (13:20) 0 0 0 0 0
08-07-2020 30.2 (13:10) 19.8 (06:20) 25 6.94 (14:40) 3.33 (00:40) 0 0 0 0 0
07-07-2020 31.9 (16:50) 20.5 (06:50) 26.2 15 (00:30) 6.39 (01:50) 0 0 0 0 0
06-07-2020 30.7 (15:30) 23.7 (00:00) 27.2 15.83 (17:30) 7.22 (19:10) 0 0 0 0 0
05-07-2020 32.3 (14:30) 19.4 (00:00) 25.8 6.67 (08:10) 3.33 (13:00) 0 0 0 0 0
04-07-2020 30 (17:10) 18.8 (00:00) 24.4 10.83 (10:20) 5.56 (10:30) 0 0 0 0 0
03-07-2020 24.4 (17:10) 17.3 (06:20) 20.8 12.78 (11:20) 6.11 (10:40) 6.2 5.8 0.4 0 0
02-07-2020 29.4 (14:10) 19.4 (00:00) 24.4 13.33 (21:10) 6.39 (22:30) 2.8 0 0 0 2.8
01-07-2020 30.8 (12:30) 22.2 (00:00) 26.5 7.5 (23:30) 3.61 (17:00) 0.4 0 0.4 0 0
30-06-2020 28.1 (13:30) 22.3 (00:00) 25.2 6.67 (13:30) 3.33 (13:30) 0 0 0 0 0
29-06-2020 28.7 (11:50) 22.1 (00:00) 25.4 7.22 (01:40) 3.06 (17:00) 0 0 0 0 0
28-06-2020 30.9 (13:40) 20.8 (00:00) 25.8 6.39 (13:40) 2.78 (14:00) 0 0 0 0 0
27-06-2020 31.4 (15:10) 20.9 (00:00) 26.1 8.61 (15:10) 3.89 (15:20) 0 0 0 0 0
26-06-2020 33 (16:40) 20.1 (00:00) 26.6 9.72 (16:30) 5 (18:10) 0 0 0 0 0
25-06-2020 28 (15:20) 19.7 (00:00) 23.9 5.56 (14:00) 2.78 (13:50) 0 0 0 0 0
24-06-2020 32.7 (15:40) 19.5 (00:00) 26.1 9.44 (16:00) 4.44 (16:20) 0 0 0 0 0
23-06-2020 29.2 (12:30) 19.3 (00:00) 24.3 7.5 (17:30) 3.61 (14:50) 0 0 0 0 0
22-06-2020 29.4 (16:10) 22 (00:00) 25.7 13.33 (10:10) 6.39 (10:10) 0 0 0 0 0
21-06-2020 30.2 (14:50) 17.3 (00:00) 23.8 13.61 (19:10) 6.39 (19:00) 0 0 0 0 0
20-06-2020 27.7 (12:40) 17.8 (00:00) 22.8 8.06 (14:40) 3.61 (16:40) 0 0 0 0 0
19-06-2020 24.6 (13:30) 14 (00:00) 19.3 6.39 (14:00) 3.06 (13:40) 0 0 0 0 0
18-06-2020 22.7 (15:40) 14.6 (00:00) 18.7 6.67 (15:40) 3.06 (16:10) 2.8 0 0 2.2 0.6
17-06-2020 22.9 (13:40) 16 (00:00) 19.4 7.5 (04:20) 3.61 (04:10) 8.8 0 0 8.4 0.4
16-06-2020 21.7 (14:10) 17 (00:00) 19.4 8.06 (05:50) 3.61 (07:50) 3.6 0 2.8 0.8 0
15-06-2020 25.5 (13:40) 18.6 (00:00) 22.1 8.89 (06:30) 4.17 (07:30) 2.4 0 0 2 0.4
14-06-2020 25.7 (12:50) 16.6 (00:00) 21.2 6.39 (07:50) 3.61 (15:30) 0 0 0 0 0
13-06-2020 24.7 (13:50) 14.3 (00:00) 19.5 11.11 (14:00) 5.28 (14:20) 0 0 0 0 0
12-06-2020 28.3 (17:10) 18.4 (00:00) 23.3 10.83 (20:20) 5.56 (20:20) 0 0 0 0 0

Gráficas

Temp. máximas Temp. mínimas Temp. medias Precipitaciones Rachas de viento máximas Velocidades máximas media en intervalos de 10 minutos

Datos horarios

Fecha y hora oficial Temperatura (ºC) Velocidad del viento (km/h) Dirección del viento Racha (km/h) Dirección de racha Precipitación (mm) Presión (hPa) Tendencia (hPa) Humedad (%)
2020-07-11 23:00:00 25.4 10 Nordeste 26 Nordeste 0 -- -- 54
2020-07-11 22:00:00 26 12 Nordeste 29 Nordeste 0 -- -- 53
2020-07-11 21:00:00 26.9 15 Nordeste 33 Nordeste 0 -- -- 50
2020-07-11 20:00:00 27.5 16 Nordeste 32 Nordeste 0 -- -- 49
2020-07-11 19:00:00 27.7 16 Nordeste 35 Este 0 -- -- 51
2020-07-11 18:00:00 27.9 18 Nordeste 36 Nordeste 0 -- -- 50
2020-07-11 17:00:00 29.5 18 Nordeste 37 Norte 0 -- -- 48
2020-07-11 16:00:00 30 16 Nordeste 36 Norte 0 -- -- 48
2020-07-11 15:00:00 29.5 15 Nordeste 37 Nordeste 0 -- -- 48
2020-07-11 14:00:00 28.6 16 Nordeste 38 Nordeste 0 -- -- 50
2020-07-11 13:00:00 28 13 Nordeste 36 Nordeste 0 -- -- 52
2020-07-11 12:00:00 26.6 19 Nordeste 45 Nordeste 0 -- -- 55
2020-07-11 11:00:00 25.6 19 Nordeste 51 Este 0 -- -- 59
2020-07-11 10:00:00 24.6 18 Nordeste 46 Nordeste 0 -- -- 62
2020-07-11 09:00:00 23.4 19 Nordeste 42 Nordeste 0 -- -- 66
2020-07-11 08:00:00 22.6 18 Nordeste 37 Nordeste 0 -- -- 69
2020-07-11 07:00:00 21.9 17 Nordeste 39 Nordeste 0 -- -- 71
2020-07-11 06:00:00 22.1 18 Nordeste 42 Nordeste 0 -- -- 70
2020-07-11 05:00:00 22.2 19 Nordeste 45 Nordeste 0 -- -- 71
2020-07-11 04:00:00 22.5 17 Nordeste 38 Nordeste 0 -- -- 70
2020-07-11 03:00:00 23.2 17 Nordeste 34 Norte 0 -- -- 67
2020-07-11 02:00:00 23.7 15 Nordeste 32 Nordeste 0 -- -- 65
2020-07-11 01:00:00 24.1 13 Nordeste 33 Nordeste 0 -- -- 65
2020-07-11 00:00:00 24.5 12 Nordeste 24 Nordeste 0 -- -- 63
2020-07-10 23:00:00 24.1 6 Nordeste 22 Nordeste 0 -- -- 74
2020-07-10 22:00:00 25.7 7 Nordeste 18 Noroeste 0 -- -- 62
2020-07-10 21:00:00 26.8 2 Sudoeste 11 Oeste 0 -- -- 68
2020-07-10 20:00:00 26.9 3 Sudoeste 9 Sudoeste 0 -- -- 69
2020-07-10 19:00:00 27.1 4 Sur 8 Sudeste 0 -- -- 67
2020-07-10 18:00:00 27.3 5 Sudeste 12 Sudeste 0 -- -- 65
2020-07-10 17:00:00 28.6 6 Sur 34 Sudoeste 0 -- -- 62
2020-07-10 16:00:00 26.6 9 Sur 18 Sudoeste 0 -- -- 67
2020-07-10 15:00:00 26.2 7 Sur 20 Sudoeste 0 -- -- 66
2020-07-10 14:00:00 27.6 11 Sudoeste 21 Sudoeste 0 -- -- 63
2020-07-10 13:00:00 29.6 7 Sur 12 Sudoeste 0 -- -- 54
2020-07-10 12:00:00 29.9 3 Sur 10 Sudeste 0 -- -- 52
2020-07-10 11:00:00 27.9 4 Sur 10 Sudoeste 0 -- -- 59
2020-07-10 10:00:00 26.6 3 Este 5 Sur 0 -- -- 61
2020-07-10 09:00:00 23.2 3 Noroeste 13 Noroeste 0 -- -- 73
2020-07-10 08:00:00 21.9 0 Calma 8 Noroeste 0 -- -- 76
2020-07-10 07:00:00 21.8 3 Norte 8 Nordeste 0 -- -- 74
2020-07-10 06:00:00 20.9 4 Norte 6 Norte 0 -- -- 79
2020-07-10 05:00:00 20.7 0 Calma 8 Nordeste 0 -- -- 80
2020-07-10 04:00:00 21.4 0 Calma 4 Sudeste 0 -- -- 79
2020-07-10 03:00:00 22 0 Calma 7 Sudeste 0 -- -- 77
2020-07-10 02:00:00 22.2 2 Sur 9 Noroeste 0 -- -- 77
2020-07-10 01:00:00 23.4 5 Noroeste 8 Noroeste 0 -- -- 71
2020-07-10 00:00:00 24.2 4 Noroeste 8 Nordeste 0 -- -- 69
2020-07-09 23:00:00 24.7 3 Este 14 Nordeste 0 -- -- 65
2020-07-09 22:00:00 24.9 6 Este 16 Nordeste 0 -- -- 68
2020-07-09 21:00:00 25.4 3 Sudeste 13 Sudeste 0 -- -- 67
2020-07-09 20:00:00 26.7 5 Sudeste 13 Sudeste 0 -- -- 61
2020-07-09 19:00:00 28.6 5 Sudeste 15 Sur 0 -- -- 54
2020-07-09 18:00:00 29.3 8 Sur 20 Sudeste 0 -- -- 53
2020-07-09 17:00:00 29.8 10 Sur 18 Sudeste 0 -- -- 54
2020-07-09 16:00:00 30.5 9 Sur 18 Sur 0 -- -- 51
2020-07-09 15:00:00 31.8 8 Sur 20 Sudoeste 0 -- -- 43
2020-07-09 14:00:00 31.3 9 Sur 22 Sudeste 0 -- -- 48
2020-07-09 13:00:00 31.9 10 Sur 19 Sur 0 -- -- 46
2020-07-09 12:00:00 30.5 4 Sur 10 Sur 0 -- -- 48
2020-07-09 11:00:00 28.4 4 Sudeste 8 Sur 0 -- -- 54
2020-07-09 10:00:00 26.6 3 Sudoeste 7 Sudoeste 0 -- -- 61
2020-07-09 09:00:00 23.7 2 Nordeste 5 Este 0 -- -- 68
2020-07-09 08:00:00 21.2 0 Calma 9 Sur 0 -- -- 76
2020-07-09 07:00:00 20.7 0 Calma 10 Noroeste 0 -- -- 77
2020-07-09 06:00:00 21.3 2 Noroeste 7 Norte 0 -- -- 73
2020-07-09 05:00:00 21.1 4 Noroeste 12 Noroeste 0 -- -- 73
2020-07-09 04:00:00 21.5 2 Este 8 Noroeste 0 -- -- 67
2020-07-09 03:00:00 21.5 4 Noroeste 7 Noroeste 0 -- -- 64
2020-07-09 02:00:00 21.6 0 Calma 5 Noroeste 0 -- -- 65
2020-07-09 01:00:00 21.8 4 Sudoeste 8 Sudoeste 0 -- -- 64
2020-07-09 00:00:00 22.9 3 Noroeste 8 Noroeste 0 -- -- 57
2020-07-08 23:00:00 23.8 0 Calma 6 Sudeste 0 -- -- 53
2020-07-08 22:00:00 24.2 3 Sudeste 8 Sudeste 0 -- -- 54
2020-07-08 21:00:00 25.3 0 Calma 9 Sudoeste 0 -- -- 49
2020-07-08 20:00:00 26.6 5 Sur 16 Sur 0 -- -- 45
2020-07-08 19:00:00 28 8 Sur 18 Sur 0 -- -- 40
2020-07-08 18:00:00 28.7 9 Sur 21 Sudeste 0 -- -- 38
2020-07-08 17:00:00 29 9 Sur 22 Sur 0 -- -- 39
2020-07-08 16:00:00 29.4 10 Sur 24 Sudeste 0 -- -- 37
2020-07-08 15:00:00 29.3 12 Sudeste 25 Sur 0 -- -- 36
2020-07-08 14:00:00 29.6 8 Sur 24 Sudoeste 0 -- -- 36
2020-07-08 13:00:00 30.1 9 Sur 21 Sur 0 -- -- 34
2020-07-08 12:00:00 29.4 6 Sur 16 Sur 0 -- -- 34
2020-07-08 11:00:00 28.2 6 Sudeste 13 Sur 0 -- -- 37
2020-07-08 10:00:00 27.3 5 Sudoeste 9 Sur 0 -- -- 39
2020-07-08 09:00:00 24.9 0 Calma 4 Oeste 0 -- -- 53
2020-07-08 08:00:00 21.4 0 Calma 4 Noroeste 0 -- -- 68
2020-07-08 07:00:00 20 2 Oeste 6 Noroeste 0 -- -- 68
2020-07-08 06:00:00 20.1 3 Noroeste 9 Noroeste 0 -- -- 64
2020-07-08 05:00:00 22.4 5 Norte 13 Norte 0 -- -- 51
2020-07-08 04:00:00 22.6 4 Norte 14 Nordeste 0 -- -- 50
2020-07-08 03:00:00 23.2 5 Norte 15 Nordeste 0 -- -- 49
2020-07-08 02:00:00 23.7 5 Norte 23 Nordeste 0 -- -- 47
2020-07-08 01:00:00 24.2 11 Nordeste 22 Nordeste 0 -- -- 43
2020-07-08 00:00:00 24.5 6 Nordeste 17 Nordeste 0 -- -- 44
2020-07-07 23:00:00 25.2 9 Nordeste 17 Este 0 -- -- 41
2020-07-07 22:00:00 26.5 6 Nordeste 18 Nordeste 0 -- -- 37
2020-07-07 21:00:00 27.7 5 Sur 19 Nordeste 0 -- -- 46
2020-07-07 20:00:00 29.6 5 Noroeste 13 Oeste 0 -- -- 37
2020-07-07 19:00:00 30.7 9 Sudoeste 19 Oeste 0 -- -- 35
2020-07-07 18:00:00 31.5 6 Sudoeste 23 Nordeste 0 -- -- 32
2020-07-07 17:00:00 31.7 9 Nordeste 24 Nordeste 0 -- -- 28
2020-07-07 16:00:00 31.6 10 Nordeste 31 Norte 0 -- -- 28
2020-07-07 15:00:00 30.6 13 Nordeste 36 Norte 0 -- -- 29
2020-07-07 14:00:00 30 14 Nordeste 36 Nordeste 0 -- -- 28
2020-07-07 13:00:00 28.8 16 Nordeste 38 Nordeste 0 -- -- 31
2020-07-07 12:00:00 27.7 13 Nordeste 39 Nordeste 0 -- -- 36
2020-07-07 11:00:00 25.8 19 Nordeste 39 Nordeste 0 -- -- 41
2020-07-07 10:00:00 24.4 15 Nordeste 44 Nordeste 0 -- -- 44
2020-07-07 09:00:00 22.8 17 Nordeste 39 Nordeste 0 -- -- 48
2020-07-07 08:00:00 21.4 16 Nordeste 42 Nordeste 0 -- -- 52
2020-07-07 07:00:00 20.5 19 Nordeste 49 Nordeste 0 -- -- 54
2020-07-07 06:00:00 20.8 18 Nordeste 40 Nordeste 0 -- -- 55
2020-07-07 05:00:00 21.4 18 Nordeste 44 Nordeste 0 -- -- 54
2020-07-07 04:00:00 22 16 Nordeste 42 Nordeste 0 -- -- 55
2020-07-07 03:00:00 22.4 22 Nordeste 46 Nordeste 0 -- -- 55
2020-07-07 02:00:00 22.8 22 Nordeste 49 Nordeste 0 -- -- 56
2020-07-07 01:00:00 23.2 18 Nordeste 54 Nordeste 0 -- -- 55
2020-07-07 00:00:00 23.7 19 Nordeste 50 Nordeste 0 -- -- 59
2020-07-06 23:00:00 24.4 24 Nordeste 52 Nordeste 0 -- -- 58
2020-07-06 22:00:00 25.1 21 Nordeste 49 Nordeste 0 -- -- 57
2020-07-06 21:00:00 26.2 23 Nordeste 51 Nordeste 0 -- -- 54
2020-07-06 20:00:00 27.3 22 Nordeste 50 Nordeste 0 -- -- 52
2020-07-06 19:00:00 28.9 21 Nordeste 53 Norte 0 -- -- 48
2020-07-06 18:00:00 29.8 19 Nordeste 57 Nordeste 0 -- -- 47
2020-07-06 17:00:00 30 19 Nordeste 48 Norte 0 -- -- 46
2020-07-06 16:00:00 30.2 21 Nordeste 46 Nordeste 0 -- -- 48
2020-07-06 15:00:00 30.1 18 Nordeste 48 Nordeste 0 -- -- 48
2020-07-06 14:00:00 29 23 Nordeste 50 Nordeste 0 -- -- 50
2020-07-06 13:00:00 28.3 22 Nordeste 45 Nordeste 0 -- -- 52
2020-07-06 12:00:00 29 16 Nordeste 37 Nordeste 0 -- -- 50
2020-07-06 11:00:00 27.8 14 Nordeste 44 Nordeste 0 -- -- 56
2020-07-06 10:00:00 26.9 17 Nordeste 41 Nordeste 0 -- -- 59
2020-07-06 09:00:00 26 19 Nordeste 42 Nordeste 0 -- -- 60
2020-07-06 08:00:00 25 16 Nordeste 42 Nordeste 0 -- -- 63
2020-07-06 07:00:00 24.3 12 Nordeste 30 Nordeste 0 -- -- 63
2020-07-06 06:00:00 24.5 13 Nordeste 30 Nordeste 0 -- -- 62
2020-07-06 05:00:00 24.7 13 Nordeste 32 Nordeste 0 -- -- 61
2020-07-06 04:00:00 25.1 15 Nordeste 35 Nordeste 0 -- -- 61
2020-07-06 03:00:00 25.4 13 Nordeste 28 Nordeste 0 -- -- 59
2020-07-06 02:00:00 25.3 12 Nordeste 23 Nordeste 0 -- -- 59
2020-07-06 01:00:00 26.1 11 Nordeste 25 Nordeste 0 -- -- 57
2020-07-06 00:00:00 26.2 5 Norte 13 Norte 0 -- -- 57
2020-07-05 23:00:00 26.7 4 Noroeste 12 Noroeste 0 -- -- 58
2020-07-05 22:00:00 27.9 3 Oeste 16 Este 0 -- -- 55
2020-07-05 21:00:00 29.1 0 Calma 10 Sudeste 0 -- -- 50
2020-07-05 20:00:00 30.6 6 Sur 14 Sudoeste 0 -- -- 46
2020-07-05 19:00:00 31.4 8 Sur 17 Sur 0 -- -- 46
2020-07-05 18:00:00 31.5 6 Sur 20 Sur 0 -- -- 47
2020-07-05 17:00:00 30.9 9 Sur 21 Sudoeste 0 -- -- 48
2020-07-05 16:00:00 31.4 8 Sur 21 Sudoeste 0 -- -- 47
2020-07-05 15:00:00 31.7 10 Sur 19 Sur 0 -- -- 45
2020-07-05 14:00:00 32 8 Nordeste 23 Nordeste 0 -- -- 38
2020-07-05 13:00:00 30.8 12 Nordeste 24 Este 0 -- -- 40
2020-07-05 12:00:00 29.7 9 Nordeste 23 Nordeste 0 -- -- 41
2020-07-05 11:00:00 27.9 4 Norte 11 Noroeste 0 -- -- 53
2020-07-05 10:00:00 26.8 4 Noroeste 12 Nordeste 0 -- -- 52
2020-07-05 09:00:00 25.2 3 Norte 24 Nordeste 0 -- -- 51
2020-07-05 08:00:00 22.8 9 Norte 23 Nordeste 0 -- -- 55
2020-07-05 07:00:00 21.3 6 Norte 14 Norte 0 -- -- 59
2020-07-05 06:00:00 19.9 5 Noroeste 19 Nordeste 0 -- -- 70
2020-07-05 05:00:00 21.5 11 Nordeste 18 Nordeste 0 -- -- 61
2020-07-05 04:00:00 20.5 4 Norte 10 Norte 0 -- -- 68
2020-07-05 03:00:00 20.2 5 Noroeste 9 Noroeste 0 -- -- 76
2020-07-05 02:00:00 21 5 Noroeste 9 Norte 0 -- -- 73
2020-07-05 01:00:00 21.4 5 Norte 9 Norte 0 -- -- 73
2020-07-05 00:00:00 22.4 3 Noroeste 12 Norte 0 -- -- 64
2020-07-04 23:00:00 23.4 0 Calma 10 Sur 0 -- -- 62
2020-07-04 22:00:00 24 3 Sur 11 Sur 0 -- -- 67
2020-07-04 21:00:00 25.5 4 Sudeste 10 Sur 0 -- -- 62
2020-07-04 20:00:00 27.2 7 Sudoeste 13 Sur 0 -- -- 56
2020-07-04 19:00:00 27.7 7 Sur 22 Sur 0 -- -- 50
2020-07-04 18:00:00 28.8 9 Sur 26 Sudeste 0 -- -- 45
2020-07-04 17:00:00 29.9 7 Este 18 Sudeste 0 -- -- 41
2020-07-04 16:00:00 29.2 6 Este 19 Nordeste 0 -- -- 40
2020-07-04 15:00:00 28.7 8 Nordeste 27 Nordeste 0 -- -- 40
2020-07-04 14:00:00 27.6 10 Este 31 Nordeste 0 -- -- 42
2020-07-04 13:00:00 26.5 12 Nordeste 29 Nordeste 0 -- -- 43
2020-07-04 12:00:00 25.1 15 Nordeste 37 Nordeste 0 -- -- 46
2020-07-04 11:00:00 23.8 16 Nordeste 39 Nordeste 0 -- -- 49
2020-07-04 10:00:00 22.1 15 Nordeste 38 Nordeste 0 -- -- 55
2020-07-04 09:00:00 20.3 18 Nordeste 38 Nordeste 0 -- -- 60
2020-07-04 08:00:00 19.2 18 Nordeste 37 Nordeste 0 -- -- 63
2020-07-04 07:00:00 18.9 15 Nordeste 37 Nordeste 0 -- -- 63
2020-07-04 06:00:00 19.3 15 Nordeste 32 Nordeste 0 -- -- 61
2020-07-04 05:00:00 20 15 Nordeste 36 Nordeste 0 -- -- 58
2020-07-04 04:00:00 20.2 15 Nordeste 37 Nordeste 0 -- -- 57
2020-07-04 03:00:00 20.1 16 Nordeste 38 Nordeste 0 -- -- 57
2020-07-04 02:00:00 20.5 15 Nordeste 37 Nordeste 0 -- -- 56
2020-07-04 01:00:00 21 13 Nordeste 37 Nordeste 0 -- -- 54
2020-07-04 00:00:00 21.5 15 Nordeste 40 Nordeste 0 -- -- 52
2020-07-03 23:00:00 21.7 18 Nordeste 41 Nordeste 0 -- -- 53
2020-07-03 22:00:00 22.1 16 Nordeste 42 Nordeste 0 -- -- 53
2020-07-03 21:00:00 22.9 15 Nordeste 37 Nordeste 0 -- -- 50
2020-07-03 20:00:00 23.4 15 Nordeste 41 Nordeste 0 -- -- 48
2020-07-03 19:00:00 23.7 18 Nordeste 39 Nordeste 0 -- -- 48
2020-07-03 18:00:00 24 19 Nordeste 42 Nordeste 0 -- -- 48
2020-07-03 17:00:00 24.2 18 Nordeste 44 Nordeste 0 -- -- 47
2020-07-03 16:00:00 24 16 Nordeste 40 Nordeste 0 -- -- 49
2020-07-03 15:00:00 23.8 18 Nordeste 42 Nordeste 0 -- -- 50
2020-07-03 14:00:00 23.7 17 Nordeste 39 Nordeste 0 -- -- 49
2020-07-03 13:00:00 22.4 15 Nordeste 42 Nordeste 0 -- -- 52
2020-07-03 12:00:00 21.7 21 Nordeste 46 Nordeste 0 -- -- 55
2020-07-03 11:00:00 20.6 19 Nordeste 45 Nordeste 0 -- -- 60
2020-07-03 10:00:00 19.7 18 Nordeste 44 Nordeste 0 -- -- 65
2020-07-03 09:00:00 19.1 19 Nordeste 44 Nordeste 0 -- -- 68
2020-07-03 08:00:00 18.4 18 Nordeste 37 Este 0 -- -- 73
2020-07-03 07:00:00 17.8 14 Nordeste 39 Nordeste 0.4 -- -- 77
2020-07-03 06:00:00 17.8 12 Nordeste 35 Nordeste 1.4 -- -- 82
2020-07-03 05:00:00 18.5 16 Nordeste 37 Nordeste 0.6 -- -- 77
2020-07-03 04:00:00 18.3 13 Nordeste 42 Nordeste 0.2 -- -- 80
2020-07-03 03:00:00 18.2 19 Nordeste 45 Nordeste 0.8 -- -- 81
2020-07-03 02:00:00 18.4 15 Nordeste 43 Nordeste 2.8 -- -- 85
2020-07-03 01:00:00 20.6 18 Nordeste 44 Nordeste 0 -- -- 71
2020-07-03 00:00:00 21.1 14 Nordeste 44 Nordeste 0 -- -- 68
2020-07-02 23:00:00 21.3 20 Nordeste 48 Nordeste 0 -- -- 68
2020-07-02 22:00:00 21.2 19 Nordeste 48 Nordeste 0 -- -- 71
2020-07-02 21:00:00 21.3 19 Nordeste 39 Nordeste 0 -- -- 73
2020-07-02 20:00:00 19.9 19 Nordeste 48 Nordeste 2.8 -- -- 85
2020-07-02 19:00:00 21.9 19 Nordeste 38 Nordeste 0 -- -- 73
2020-07-02 18:00:00 21.2 17 Nordeste 42 Nordeste 0 -- -- 79
2020-07-02 17:00:00 24.3 16 Nordeste 40 Nordeste 0 -- -- 66
2020-07-02 16:00:00 27.7 12 Nordeste 24 Nordeste 0 -- -- 57
2020-07-02 15:00:00 27.8 5 Norte 31 Sudoeste 0 -- -- 62
2020-07-02 14:00:00 28.8 10 Nordeste 22 Nordeste 0 -- -- 57
2020-07-02 13:00:00 27 9 Nordeste 24 Nordeste 0 -- -- 63
2020-07-02 12:00:00 28 10 Nordeste 27 Nordeste 0 -- -- 58
2020-07-02 11:00:00 27.5 5 Este 25 Nordeste 0 -- -- 61
2020-07-02 10:00:00 25.4 11 Nordeste 30 Nordeste 0 -- -- 69
2020-07-02 09:00:00 24.4 4 Norte 32 Nordeste 0 -- -- 75
2020-07-02 08:00:00 23.1 15 Nordeste 28 Nordeste 0 -- -- 76
2020-07-02 07:00:00 22.6 13 Nordeste 26 Nordeste 0 -- -- 79
2020-07-02 06:00:00 23 9 Nordeste 25 Nordeste 0 -- -- 78
2020-07-02 05:00:00 23.5 11 Nordeste 26 Norte 0 -- -- 74
2020-07-02 04:00:00 23.8 9 Nordeste 24 Nordeste 0 -- -- 74
2020-07-02 03:00:00 24.2 11 Nordeste 31 Nordeste 0 -- -- 72
2020-07-02 02:00:00 24.7 15 Nordeste 31 Nordeste 0 -- -- 71
2020-07-02 01:00:00 25.6 11 Nordeste 29 Nordeste 0 -- -- 67
2020-07-02 00:00:00 25.9 10 Nordeste 27 Nordeste 0 -- -- 64
2020-07-01 23:00:00 26 5 Nordeste 12 Este 0 -- -- 66
2020-07-01 22:00:00 26.9 6 Este 22 Nordeste 0 -- -- 65
2020-07-01 21:00:00 27.4 10 Nordeste 22 Nordeste 0 -- -- 68
2020-07-01 20:00:00 28.9 5 Nordeste 14 Nordeste 0 -- -- 64
2020-07-01 19:00:00 30.2 6 Este 19 Sudeste 0 -- -- 54
2020-07-01 18:00:00 29 9 Sudeste 23 Sudeste 0 -- -- 58
2020-07-01 17:00:00 29.1 13 Sudeste 26 Sur 0 -- -- 56
2020-07-01 16:00:00 29 9 Sudeste 23 Sur 0 -- -- 69
2020-07-01 15:00:00 28.4 10 Sur 25 Sudeste 0 -- -- 72
2020-07-01 14:00:00 28.5 12 Sur 25 Sur 0 -- -- 67
2020-07-01 13:00:00 30 9 Sur 19 Sudoeste 0 -- -- 63
2020-07-01 12:00:00 29.9 5 Sur 11 Sudoeste 0 -- -- 60
2020-07-01 11:00:00 28.3 4 Sur 9 Sudoeste 0 -- -- 65
2020-07-01 10:00:00 26.8 4 Nordeste 7 Nordeste 0 -- -- 78
2020-07-01 09:00:00 25.2 2 Nordeste 7 Sudoeste 0 -- -- 85
2020-07-01 08:00:00 23.3 5 Sudoeste 9 Norte 0 -- -- 92
2020-07-01 07:00:00 22.3 4 Norte 14 Norte 0.4 -- -- 94
2020-07-01 06:00:00 22.4 5 Oeste 9 Sudoeste 0 -- -- 93
2020-07-01 05:00:00 22.7 6 Sudoeste 12 Oeste 0 -- -- 91
2020-07-01 04:00:00 22.7 3 Este 12 Este 0 -- -- 90
2020-07-01 03:00:00 23 3 Norte 8 Noroeste 0 -- -- 88
2020-07-01 02:00:00 23 3 Norte 7 Norte 0 -- -- 88
2020-07-01 01:00:00 23.5 2 Noroeste 6 Oeste 0 -- -- 86
2020-07-01 00:00:00 23.7 0 Calma 10 Oeste 0 -- -- 85
2020-06-30 23:00:00 24.5 5 Sudoeste 9 Oeste 0 -- -- 82
2020-06-30 22:00:00 25.6 4 Oeste 10 Noroeste 0 -- -- 78
2020-06-30 21:00:00 27.1 5 Noroeste 13 Oeste 0 -- -- 73
2020-06-30 20:00:00 28.1 9 Oeste 17 Sudoeste 0 -- -- 70
2020-06-30 19:00:00 28 6 Sudoeste 19 Sur 0 -- -- 70
2020-06-30 18:00:00 27.9 9 Sur 21 Sur 0 -- -- 70
2020-06-30 17:00:00 27.8 10 Sur 21 Sur 0 -- -- 70
2020-06-30 16:00:00 26.8 8 Sur 17 Sudeste 0 -- -- 73
2020-06-30 15:00:00 26.8 8 Sur 18 Sur 0 -- -- 71
2020-06-30 14:00:00 27.5 11 Sur 24 Sudoeste 0 -- -- 69
2020-06-30 13:00:00 27.9 9 Sudoeste 19 Sudoeste 0 -- -- 65
2020-06-30 12:00:00 26.4 7 Sudoeste 14 Sudoeste 0 -- -- 64
2020-06-30 11:00:00 25.7 5 Oeste 12 Sudoeste 0 -- -- 63
2020-06-30 10:00:00 25.3 5 Oeste 11 Oeste 0 -- -- 68
2020-06-30 09:00:00 23.3 5 Nordeste 13 Norte 0 -- -- 65
2020-06-30 08:00:00 22.5 4 Nordeste 17 Nordeste 0 -- -- 66
2020-06-30 07:00:00 22.3 9 Nordeste 23 Nordeste 0 -- -- 65
2020-06-30 06:00:00 22.8 8 Nordeste 19 Nordeste 0 -- -- 63
2020-06-30 05:00:00 23 5 Norte 14 Norte 0 -- -- 63
2020-06-30 04:00:00 23 3 Noroeste 6 Noroeste 0 -- -- 69
2020-06-30 03:00:00 23.3 0 Calma 4 Norte 0 -- -- 68
2020-06-30 02:00:00 23.4 2 Norte 8 Noroeste 0 -- -- 69
2020-06-30 01:00:00 23.5 4 Noroeste 8 Noroeste 0 -- -- 71
2020-06-30 00:00:00 23.9 3 Noroeste 7 Noroeste 0 -- -- 67
2020-06-29 23:00:00 23.9 2 Oeste 10 Sur 0 -- -- 71
2020-06-29 22:00:00 24.2 4 Norte 10 Norte 0 -- -- 70
2020-06-29 21:00:00 24.1 6 Nordeste 19 Nordeste 0 -- -- 65
2020-06-29 20:00:00 24.2 9 Nordeste 22 Nordeste 0 -- -- 65
2020-06-29 19:00:00 24.7 8 Nordeste 20 Nordeste 0 -- -- 66
2020-06-29 18:00:00 25.3 8 Nordeste 23 Nordeste 0 -- -- 64
2020-06-29 17:00:00 26 11 Nordeste 22 Nordeste 0 -- -- 63
2020-06-29 16:00:00 26.6 2 Norte 13 Sudoeste 0 -- -- 62
2020-06-29 15:00:00 27.6 4 Sur 10 Sudeste 0 -- -- 64
2020-06-29 14:00:00 26.8 6 Este 12 Sudeste 0 -- -- 66
2020-06-29 13:00:00 27.4 4 Nordeste 21 Sudeste 0 -- -- 60
2020-06-29 12:00:00 28.7 5 Sur 11 Sudoeste 0 -- -- 61
2020-06-29 11:00:00 28 3 Este 10 Oeste 0 -- -- 59
2020-06-29 10:00:00 26.5 4 Noroeste 10 Norte 0 -- -- 65
2020-06-29 09:00:00 24.9 2 Norte 6 Norte 0 -- -- 73
2020-06-29 08:00:00 23 0 Calma 9 Nordeste 0 -- -- 81
2020-06-29 07:00:00 22.6 2 Nordeste 6 Este 0 -- -- 81
2020-06-29 06:00:00 22.2 0 Calma 6 Noroeste 0 -- -- 83
2020-06-29 05:00:00 22.7 4 Noroeste 8 Noroeste 0 -- -- 83
2020-06-29 04:00:00 24.1 4 Noroeste 17 Nordeste 0 -- -- 71
2020-06-29 03:00:00 24.6 5 Nordeste 16 Nordeste 0 -- -- 68
2020-06-29 02:00:00 25.3 5 Nordeste 26 Nordeste 0 -- -- 67
2020-06-29 01:00:00 25.7 6 Nordeste 20 Norte 0 -- -- 66
2020-06-29 00:00:00 25.8 5 Nordeste 12 Nordeste 0 -- -- 68
2020-06-28 23:00:00 26.2 3 Norte 5 Sudeste 0 -- -- 66
2020-06-28 22:00:00 26.3 3 Este 11 Este 0 -- -- 67
2020-06-28 21:00:00 27.2 5 Este 13 Este 0 -- -- 64
2020-06-28 20:00:00 28.2 4 Sudeste 14 Sudeste 0 -- -- 61
2020-06-28 19:00:00 28.6 6 Sudeste 19 Sudeste 0 -- -- 60
2020-06-28 18:00:00 29.8 9 Sudeste 19 Sudeste 0 -- -- 55
2020-06-28 17:00:00 29.3 8 Sur 19 Sur 0 -- -- 54
2020-06-28 16:00:00 27.4 7 Sur 22 Sur 0 -- -- 63
2020-06-28 15:00:00 29.5 8 Sudeste 22 Sur 0 -- -- 59
2020-06-28 14:00:00 30.5 10 Sur 23 Sur 0 -- -- 58
2020-06-28 13:00:00 30.5 8 Sur 18 Sudeste 0 -- -- 56
2020-06-28 12:00:00 30.2 5 Sur 12 Sur 0 -- -- 56
2020-06-28 11:00:00 28.7 4 Este 10 Este 0 -- -- 60
2020-06-28 10:00:00 26.6 2 Oeste 6 Oeste 0 -- -- 69
2020-06-28 09:00:00 24.5 0 Calma 5 Norte 0 -- -- 78
2020-06-28 08:00:00 22.1 2 Noroeste 5 Norte 0 -- -- 87
2020-06-28 07:00:00 21.3 2 Este 9 Nordeste 0 -- -- 89
2020-06-28 06:00:00 21 3 Este 6 Este 0 -- -- 91
2020-06-28 05:00:00 20.8 3 Noroeste 7 Noroeste 0 -- -- 90
2020-06-28 04:00:00 21.6 3 Noroeste 5 Noroeste 0 -- -- 90
2020-06-28 03:00:00 21.8 4 Noroeste 8 Noroeste 0 -- -- 89
2020-06-28 02:00:00 22.4 0 Calma 5 Este 0 -- -- 90
2020-06-28 01:00:00 22.7 0 Calma 6 Este 0 -- -- 89
2020-06-28 00:00:00 22.8 2 Este 6 Sur 0 -- -- 89
2020-06-27 23:00:00 22.9 2 Sudeste 8 Sudeste 0 -- -- 89
2020-06-27 22:00:00 23.1 3 Sudeste 8 Este 0 -- -- 88
2020-06-27 21:00:00 24 6 Sudeste 14 Sur 0 -- -- 85
2020-06-27 20:00:00 25.5 8 Sudeste 19 Sudeste 0 -- -- 77
2020-06-27 19:00:00 26.6 9 Sur 22 Sudeste 0 -- -- 71
2020-06-27 18:00:00 27.1 10 Sudeste 23 Sudeste 0 -- -- 67
2020-06-27 17:00:00 29.8 10 Sur 27 Sur 0 -- -- 54
2020-06-27 16:00:00 30.9 12 Sudoeste 31 Sudoeste 0 -- -- 49
2020-06-27 15:00:00 31.2 12 Sur 30 Sudoeste 0 -- -- 53
2020-06-27 14:00:00 28.4 12 Sudeste 25 Sudeste 0 -- -- 67
2020-06-27 13:00:00 28 10 Sur 22 Este 0 -- -- 66
2020-06-27 12:00:00 28.3 9 Sur 14 Sur 0 -- -- 63
2020-06-27 11:00:00 27 7 Sudoeste 17 Sur 0 -- -- 63
2020-06-27 10:00:00 25.5 5 Sudoeste 13 Sudoeste 0 -- -- 69
2020-06-27 09:00:00 22.9 0 Calma 5 Sudoeste 0 -- -- 76
2020-06-27 08:00:00 21.4 2 Sudeste 4 Sudoeste 0 -- -- 79
2020-06-27 07:00:00 21.2 0 Calma 7 Este 0 -- -- 78
2020-06-27 06:00:00 21.7 2 Nordeste 6 Este 0 -- -- 75
2020-06-27 05:00:00 21.9 2 Norte 12 Norte 0 -- -- 74
2020-06-27 04:00:00 21.5 2 Sudoeste 8 Este 0 -- -- 76
2020-06-27 03:00:00 21.8 3 Este 12 Nordeste 0 -- -- 72
2020-06-27 02:00:00 21.7 6 Nordeste 12 Nordeste 0 -- -- 73
2020-06-27 01:00:00 22.4 5 Nordeste 11 Nordeste 0 -- -- 73
2020-06-27 00:00:00 23.6 3 Oeste 13 Sudoeste 0 -- -- 61
2020-06-26 23:00:00 24.4 7 Oeste 15 Oeste 0 -- -- 55
2020-06-26 22:00:00 25.7 9 Oeste 18 Oeste 0 -- -- 48
2020-06-26 21:00:00 27.1 7 Sudoeste 18 Sudoeste 0 -- -- 46
2020-06-26 20:00:00 28.8 11 Sudoeste 27 Sur 0 -- -- 42
2020-06-26 19:00:00 31.2 12 Sudoeste 31 Sudoeste 0 -- -- 38
2020-06-26 18:00:00 32.5 16 Sudoeste 33 Oeste 0 -- -- 33
2020-06-26 17:00:00 32.8 15 Sudoeste 35 Sudoeste 0 -- -- 33
2020-06-26 16:00:00 32.8 17 Sudoeste 33 Sudoeste 0 -- -- 35
2020-06-26 15:00:00 32.6 14 Sudoeste 32 Sur 0 -- -- 38
2020-06-26 14:00:00 29.8 7 Sur 20 Sudeste 0 -- -- 55
2020-06-26 13:00:00 27.5 9 Sudeste 19 Sur 0 -- -- 70
2020-06-26 12:00:00 27.4 7 Sur 15 Sur 0 -- -- 67
2020-06-26 11:00:00 25.6 4 Sudeste 10 Sur 0 -- -- 68
2020-06-26 10:00:00 23.7 5 Sudeste 9 Sudeste 0 -- -- 79
2020-06-26 09:00:00 21.4 4 Oeste 8 Oeste 0 -- -- 88
2020-06-26 08:00:00 20.5 4 Oeste 6 Oeste 0 -- -- 89
2020-06-26 07:00:00 20.1 0 Calma 6 Noroeste 0 -- -- 92
2020-06-26 06:00:00 20.6 3 Noroeste 5 Oeste 0 -- -- 91
2020-06-26 05:00:00 21 3 Este 7 Sudeste 0 -- -- 91
2020-06-26 04:00:00 20.9 4 Norte 9 Norte 0 -- -- 91
2020-06-26 03:00:00 21.3 2 Sudoeste 6 Sur 0 -- -- 90
2020-06-26 02:00:00 21.4 3 Noroeste 8 Oeste 0 -- -- 91
2020-06-26 01:00:00 22.3 0 Calma 12 Este 0 -- -- 89
2020-06-26 00:00:00 22.8 3 Noroeste 8 Noroeste 0 -- -- 88
2020-06-25 23:00:00 23.1 3 Nordeste 7 Nordeste 0 -- -- 88
2020-06-25 22:00:00 23.3 3 Norte 9 Este 0 -- -- 88
2020-06-25 21:00:00 23.7 5 Este 11 Sudeste 0 -- -- 87
2020-06-25 20:00:00 23.6 6 Este 17 Sudeste 0 -- -- 87
2020-06-25 19:00:00 24.1 5 Sur 15 Sur 0 -- -- 87
2020-06-25 18:00:00 25.1 5 Sudeste 15 Sudeste 0 -- -- 79
2020-06-25 17:00:00 25.7 8 Sudeste 18 Sudeste 0 -- -- 75
2020-06-25 16:00:00 26.8 9 Sudeste 20 Sudeste 0 -- -- 71
2020-06-25 15:00:00 27.9 8 Sur 19 Sur 0 -- -- 65
2020-06-25 14:00:00 27.7 9 Sur 20 Sur 0 -- -- 67
2020-06-25 13:00:00 27.3 6 Sur 19 Sur 0 -- -- 64
2020-06-25 12:00:00 26.7 7 Sur 18 Sur 0 -- -- 66
2020-06-25 11:00:00 25.9 4 Sur 13 Sudeste 0 -- -- 69
2020-06-25 10:00:00 24.3 4 Sudoeste 9 Sudoeste 0 -- -- 74
2020-06-25 09:00:00 22.6 2 Este 8 Nordeste 0 -- -- 80
2020-06-25 08:00:00 21.1 3 Sudeste 4 Sudeste 0 -- -- 85
2020-06-25 07:00:00 19.7 0 Calma 3 Sudoeste 0 -- -- 89
2020-06-25 06:00:00 19.9 2 Noroeste 5 Sudoeste 0 -- -- 89
2020-06-25 05:00:00 20.2 0 Calma 6 Nordeste 0 -- -- 88
2020-06-25 04:00:00 20.9 3 Nordeste 9 Nordeste 0 -- -- 87
2020-06-25 03:00:00 20.9 0 Calma 9 Nordeste 0 -- -- 86
2020-06-25 02:00:00 21.4 3 Nordeste 9 Nordeste 0 -- -- 86
2020-06-25 01:00:00 21.5 5 Nordeste 13 Nordeste 0 -- -- 87
2020-06-25 00:00:00 22.1 5 Nordeste 10 Nordeste 0 -- -- 87
2020-06-24 23:00:00 22.7 4 Sudeste 13 Sudeste 0 -- -- 82
2020-06-24 22:00:00 23.6 6 Este 10 Este 0 -- -- 77
2020-06-24 21:00:00 24.6 3 Sudeste 15 Sudeste 0 -- -- 71
2020-06-24 20:00:00 25.7 6 Sudeste 19 Sur 0 -- -- 68
2020-06-24 19:00:00 29 9 Sur 26 Sur 0 -- -- 53
2020-06-24 18:00:00 30.2 15 Sur 30 Sur 0 -- -- 51
2020-06-24 17:00:00 31.2 14 Sur 33 Sudoeste 0 -- -- 49
2020-06-24 16:00:00 32.4 13 Sudoeste 34 Sudoeste 0 -- -- 48
2020-06-24 15:00:00 30.9 10 Sudeste 23 Sudeste 0 -- -- 54
2020-06-24 14:00:00 30.1 7 Sudeste 21 Sur 0 -- -- 55
2020-06-24 13:00:00 28.8 9 Sudeste 17 Sur 0 -- -- 61
2020-06-24 12:00:00 28.3 5 Sur 15 Sudeste 0 -- -- 57
2020-06-24 11:00:00 26.3 3 Sudeste 12 Oeste 0 -- -- 62
2020-06-24 10:00:00 24.8 4 Sudoeste 10 Oeste 0 -- -- 67
2020-06-24 09:00:00 22.7 3 Sudoeste 9 Sudoeste 0 -- -- 76
2020-06-24 08:00:00 20.9 2 Sudeste 6 Este 0 -- -- 83
2020-06-24 07:00:00 19.5 4 Este 6 Este 0 -- -- 89
2020-06-24 06:00:00 20 2 Norte 5 Noroeste 0 -- -- 89
2020-06-24 05:00:00 19.8 2 Noroeste 7 Oeste 0 -- -- 88
2020-06-24 04:00:00 20.4 0 Calma 5 Sudoeste 0 -- -- 88
2020-06-24 03:00:00 21.3 3 Este 6 Sur 0 -- -- 86
2020-06-24 02:00:00 22.2 2 Noroeste 4 Oeste 0 -- -- 81
2020-06-24 01:00:00 22.6 0 Calma 8 Nordeste 0 -- -- 82
2020-06-24 00:00:00 23.3 3 Este 9 Nordeste 0 -- -- 78
2020-06-23 23:00:00 24 3 Nordeste 7 Nordeste 0 -- -- 76
2020-06-23 22:00:00 24.6 3 Nordeste 7 Nordeste 0 -- -- 75
2020-06-23 21:00:00 25.5 4 Sudeste 12 Sudeste 0 -- -- 72
2020-06-23 20:00:00 26.7 6 Sudeste 15 Sudeste 0 -- -- 67
2020-06-23 19:00:00 27.6 7 Sudeste 17 Sudeste 0 -- -- 65
2020-06-23 18:00:00 27.2 9 Sudeste 27 Sudeste 0 -- -- 67
2020-06-23 17:00:00 27.6 8 Sudeste 26 Sudeste 0 -- -- 61
2020-06-23 16:00:00 28 10 Sudeste 26 Sur 0 -- -- 59
2020-06-23 15:00:00 27.8 13 Sur 25 Sur 0 -- -- 51
2020-06-23 14:00:00 28.5 10 Sur 22 Sudoeste 0 -- -- 47
2020-06-23 13:00:00 28.9 9 Sur 24 Sudoeste 0 -- -- 47
2020-06-23 12:00:00 28.9 10 Sur 19 Sur 0 -- -- 47
2020-06-23 11:00:00 28.2 6 Sur 12 Sudoeste 0 -- -- 48
2020-06-23 10:00:00 26.9 4 Este 11 Nordeste 0 -- -- 49
2020-06-23 09:00:00 23.9 2 Nordeste 8 Noroeste 0 -- -- 60
2020-06-23 08:00:00 21.4 5 Noroeste 11 Noroeste 0 -- -- 69
2020-06-23 07:00:00 19.5 4 Noroeste 9 Noroeste 0 -- -- 74
2020-06-23 06:00:00 19.7 3 Noroeste 12 Noroeste 0 -- -- 71
2020-06-23 05:00:00 20.8 4 Noroeste 9 Norte 0 -- -- 68
2020-06-23 04:00:00 21.3 5 Noroeste 10 Noroeste 0 -- -- 70
2020-06-23 03:00:00 21.3 5 Noroeste 12 Oeste 0 -- -- 74
2020-06-23 02:00:00 21.7 5 Noroeste 9 Norte 0 -- -- 66
2020-06-23 01:00:00 21.7 6 Noroeste 11 Noroeste 0 -- -- 67
2020-06-23 00:00:00 23 4 Noroeste 25 Nordeste 0 -- -- 60
2020-06-22 23:00:00 24.3 11 Nordeste 22 Nordeste 0 -- -- 54
2020-06-22 22:00:00 25.4 12 Nordeste 32 Nordeste 0 -- -- 50
2020-06-22 21:00:00 26.4 13 Nordeste 27 Este 0 -- -- 48
2020-06-22 20:00:00 27.7 11 Nordeste 29 Nordeste 0 -- -- 44
2020-06-22 19:00:00 28.6 11 Nordeste 36 Nordeste 0 -- -- 43
2020-06-22 18:00:00 29.2 16 Nordeste 34 Nordeste 0 -- -- 44
2020-06-22 17:00:00 29.3 14 Nordeste 31 Nordeste 0 -- -- 45
2020-06-22 16:00:00 29.3 10 Este 32 Nordeste 0 -- -- 44
2020-06-22 15:00:00 28.7 15 Nordeste 37 Nordeste 0 -- -- 47
2020-06-22 14:00:00 28.1 15 Nordeste 37 Este 0 -- -- 47
2020-06-22 13:00:00 27.6 16 Nordeste 39 Nordeste 0 -- -- 49
2020-06-22 12:00:00 26.4 21 Nordeste 44 Norte 0 -- -- 51
2020-06-22 11:00:00 25.8 19 Nordeste 48 Nordeste 0 -- -- 54
2020-06-22 10:00:00 24.9 18 Nordeste 48 Nordeste 0 -- -- 56
2020-06-22 09:00:00 24 13 Nordeste 39 Nordeste 0 -- -- 61
2020-06-22 08:00:00 22.8 14 Nordeste 40 Nordeste 0 -- -- 63
2020-06-22 07:00:00 22 17 Nordeste 36 Nordeste 0 -- -- 64
2020-06-22 06:00:00 22.3 8 Nordeste 31 Nordeste 0 -- -- 61
2020-06-22 05:00:00 22.7 8 Nordeste 36 Nordeste 0 -- -- 59
2020-06-22 04:00:00 23.2 8 Nordeste 32 Nordeste 0 -- -- 57
2020-06-22 03:00:00 23.7 14 Nordeste 44 Nordeste 0 -- -- 54
2020-06-22 02:00:00 23.9 11 Norte 39 Nordeste 0 -- -- 53
2020-06-22 01:00:00 23.9 15 Nordeste 39 Nordeste 0 -- -- 53
2020-06-22 00:00:00 24.3 18 Nordeste 37 Nordeste 0 -- -- 53
2020-06-21 23:00:00 25.1 16 Nordeste 41 Nordeste 0 -- -- 48
2020-06-21 22:00:00 25.8 15 Nordeste 40 Nordeste 0 -- -- 46
2020-06-21 21:00:00 26.8 16 Nordeste 39 Nordeste 0 -- -- 42
2020-06-21 20:00:00 28.1 20 Nordeste 49 Nordeste 0 -- -- 37
2020-06-21 19:00:00 29.3 23 Nordeste 46 Nordeste 0 -- -- 34
2020-06-21 18:00:00 30 19 Nordeste 37 Nordeste 0 -- -- 35
2020-06-21 17:00:00 29.2 6 Sudeste 17 Sur 0 -- -- 52
2020-06-21 16:00:00 28.8 9 Sur 22 Sur 0 -- -- 53
2020-06-21 15:00:00 29.9 7 Este 18 Nordeste 0 -- -- 44
2020-06-21 14:00:00 29.2 5 Norte 18 Nordeste 0 -- -- 46
2020-06-21 13:00:00 28.3 5 Este 15 Norte 0 -- -- 49
2020-06-21 12:00:00 27.4 5 Este 19 Norte 0 -- -- 51
2020-06-21 11:00:00 26 11 Nordeste 30 Nordeste 0 -- -- 53
2020-06-21 10:00:00 24.8 14 Nordeste 30 Nordeste 0 -- -- 57
2020-06-21 09:00:00 23.6 10 Nordeste 27 Nordeste 0 -- -- 60
2020-06-21 08:00:00 21.6 10 Nordeste 22 Nordeste 0 -- -- 67
2020-06-21 07:00:00 17.4 3 Noroeste 10 Noroeste 0 -- -- 85
2020-06-21 06:00:00 17.3 5 Noroeste 12 Nordeste 0 -- -- 86
2020-06-21 05:00:00 17.8 4 Noroeste 9 Norte 0 -- -- 84
2020-06-21 04:00:00 17.9 4 Norte 11 Oeste 0 -- -- 85
2020-06-21 03:00:00 18.2 5 Noroeste 12 Noroeste 0 -- -- 84
2020-06-21 02:00:00 19.5 5 Noroeste 10 Noroeste 0 -- -- 82
2020-06-21 01:00:00 21.3 4 Norte 13 Nordeste 0 -- -- 67
2020-06-21 00:00:00 20.6 5 Noroeste 13 Oeste 0 -- -- 83
2020-06-20 23:00:00 22 4 Noroeste 10 Noroeste 0 -- -- 81
2020-06-20 22:00:00 22.7 5 Noroeste 12 Noroeste 0 -- -- 82
2020-06-20 21:00:00 23.3 5 Noroeste 11 Noroeste 0 -- -- 78
2020-06-20 20:00:00 23.8 4 Oeste 18 Oeste 0 -- -- 75
2020-06-20 19:00:00 25 9 Oeste 18 Oeste 0 -- -- 68
2020-06-20 18:00:00 25.4 9 Sudoeste 21 Sur 0 -- -- 64
2020-06-20 17:00:00 26.3 10 Sudeste 26 Sur 0 -- -- 60
2020-06-20 16:00:00 26.7 11 Sur 24 Sudeste 0 -- -- 50
2020-06-20 15:00:00 26.7 11 Sur 29 Sudoeste 0 -- -- 47
2020-06-20 14:00:00 27.2 12 Sur 23 Sur 0 -- -- 49
2020-06-20 13:00:00 27.5 6 Sur 19 Sur 0 -- -- 48
2020-06-20 12:00:00 26.6 2 Nordeste 15 Nordeste 0 -- -- 48
2020-06-20 11:00:00 25.8 7 Nordeste 27 Nordeste 0 -- -- 47
2020-06-20 10:00:00 24.3 11 Nordeste 27 Norte 0 -- -- 48
2020-06-20 09:00:00 22.9 9 Nordeste 19 Nordeste 0 -- -- 53
2020-06-20 08:00:00 20.4 6 Nordeste 16 Este 0 -- -- 62
2020-06-20 07:00:00 17.8 4 Noroeste 8 Norte 0 -- -- 78
2020-06-20 06:00:00 19.1 5 Nordeste 13 Nordeste 0 -- -- 65
2020-06-20 05:00:00 18.6 0 Calma 5 Noroeste 0 -- -- 82
2020-06-20 04:00:00 18.9 2 Norte 8 Noroeste 0 -- -- 83
2020-06-20 03:00:00 19.6 0 Calma 8 Sudeste 0 -- -- 80
2020-06-20 02:00:00 20.2 2 Sur 13 Nordeste 0 -- -- 80
2020-06-20 01:00:00 20.2 4 Norte 9 Norte 0 -- -- 79
2020-06-20 00:00:00 20.3 5 Noroeste 10 Noroeste 0 -- -- 79
2020-06-19 23:00:00 20.8 3 Norte 8 Noroeste 0 -- -- 75
2020-06-19 22:00:00 21.2 3 Sudoeste 6 Oeste 0 -- -- 70
2020-06-19 21:00:00 21.3 2 Sudoeste 4 Sudoeste 0 -- -- 66
2020-06-19 20:00:00 21.4 2 Sudoeste 8 Sudoeste 0 -- -- 63
2020-06-19 19:00:00 21.6 0 Calma 7 Sur 0 -- -- 62
2020-06-19 18:00:00 21.3 3 Este 9 Sudeste 0 -- -- 60
2020-06-19 17:00:00 21.4 6 Sur 15 Sudoeste 0 -- -- 63
2020-06-19 16:00:00 22.3 6 Sur 17 Sur 0 -- -- 59
2020-06-19 15:00:00 23.4 8 Sur 22 Sur 0 -- -- 60
2020-06-19 14:00:00 24.3 9 Sur 23 Sur 0 -- -- 57
2020-06-19 13:00:00 23.9 6 Sur 16 Sudoeste 0 -- -- 57
2020-06-19 12:00:00 23.3 6 Sur 12 Sur 0 -- -- 57
2020-06-19 11:00:00 23.2 3 Este 14 Nordeste 0 -- -- 55
2020-06-19 10:00:00 21.8 7 Nordeste 17 Nordeste 0 -- -- 58
2020-06-19 09:00:00 20 7 Nordeste 20 Nordeste 0 -- -- 66
2020-06-19 08:00:00 17.9 5 Nordeste 16 Este 0 -- -- 74
2020-06-19 07:00:00 14.9 0 Calma 9 Noroeste 0 -- -- 89
2020-06-19 06:00:00 14.6 4 Noroeste 8 Noroeste 0 -- -- 86
2020-06-19 05:00:00 14.8 3 Norte 13 Noroeste 0 -- -- 84
2020-06-19 04:00:00 14.1 4 Noroeste 8 Sudeste 0 -- -- 89
2020-06-19 03:00:00 14.9 2 Sudeste 8 Noroeste 0 -- -- 91
2020-06-19 02:00:00 14.7 6 Norte 11 Norte 0 -- -- 90
2020-06-19 01:00:00 15.9 0 Calma 8 Este 0 -- -- 91
2020-06-19 00:00:00 16.6 3 Este 13 Oeste 0 -- -- 90
2020-06-18 23:00:00 17.1 5 Norte 12 Noroeste 0 -- -- 88
2020-06-18 22:00:00 17.6 5 Noroeste 12 Noroeste 0 -- -- 90
2020-06-18 21:00:00 18.5 3 Oeste 10 Noroeste 0 -- -- 86
2020-06-18 20:00:00 18.8 4 Noroeste 8 Noroeste 0 -- -- 83
2020-06-18 19:00:00 19 2 Oeste 10 Sur 0.6 -- -- 79
2020-06-18 18:00:00 19.5 3 Sudeste 16 Sur 2 -- -- 80
2020-06-18 17:00:00 21.1 8 Sur 21 Sudoeste 0.2 -- -- 67
2020-06-18 16:00:00 22.4 11 Sur 24 Sudoeste 0 -- -- 60
2020-06-18 15:00:00 22.2 8 Sudeste 17 Sudoeste 0 -- -- 60
2020-06-18 14:00:00 20.9 6 Sudeste 14 Sur 0 -- -- 66
2020-06-18 13:00:00 18.9 4 Sudeste 12 Este 0 -- -- 76
2020-06-18 12:00:00 17.7 4 Sur 16 Sur 0 -- -- 82
2020-06-18 11:00:00 16.9 5 Sudoeste 11 Sudoeste 0 -- -- 87
2020-06-18 10:00:00 16.6 4 Noroeste 9 Sudoeste 0 -- -- 89
2020-06-18 09:00:00 16.1 3 Oeste 7 Oeste 0 -- -- 89
2020-06-18 08:00:00 15.5 2 Norte 6 Norte 0 -- -- 89
2020-06-18 07:00:00 14.6 2 Nordeste 8 Sudeste 0 -- -- 93
2020-06-18 06:00:00 14.9 0 Calma 7 Nordeste 0 -- -- 91
2020-06-18 05:00:00 15 4 Norte 9 Noroeste 0 -- -- 92
2020-06-18 04:00:00 15.7 2 Sur 8 Noroeste 0 -- -- 90
2020-06-18 03:00:00 15.7 3 Sudoeste 9 Noroeste 0 -- -- 90
2020-06-18 02:00:00 16.2 2 Nordeste 13 Noroeste 0 -- -- 88
2020-06-18 01:00:00 16.4 4 Noroeste 10 Noroeste 0 -- -- 91
2020-06-18 00:00:00 16.6 0 Calma 10 Noroeste 0.2 -- -- 91
2020-06-17 23:00:00 16.5 6 Noroeste 14 Norte 0 -- -- 91
2020-06-17 22:00:00 17 3 Noroeste 7 Noroeste 0 -- -- 91
2020-06-17 21:00:00 17 3 Noroeste 10 Noroeste 0 -- -- 90
2020-06-17 20:00:00 17.3 4 Noroeste 9 Norte 0.2 -- -- 87
2020-06-17 19:00:00 17.4 4 Noroeste 12 Sudoeste 0 -- -- 86
2020-06-17 18:00:00 17.7 4 Sudoeste 10 Sudoeste 0.8 -- -- 86
2020-06-17 17:00:00 17.5 4 Sur 19 Norte 7.4 -- -- 87
2020-06-17 16:00:00 19.6 9 Sudeste 22 Este 0.2 -- -- 68
2020-06-17 15:00:00 22 6 Sur 18 Sur 0 -- -- 60
2020-06-17 14:00:00 22.9 4 Sur 14 Sudoeste 0 -- -- 56
2020-06-17 13:00:00 22.5 4 Norte 18 Nordeste 0 -- -- 54
2020-06-17 12:00:00 21.4 10 Nordeste 24 Nordeste 0 -- -- 55
2020-06-17 11:00:00 19.4 9 Nordeste 25 Nordeste 0 -- -- 62
2020-06-17 10:00:00 18.5 9 Nordeste 22 Nordeste 0 -- -- 62
2020-06-17 09:00:00 18.4 12 Nordeste 24 Nordeste 0 -- -- 64
2020-06-17 08:00:00 17.6 10 Nordeste 24 Nordeste 0 -- -- 68
2020-06-17 07:00:00 17.1 4 Noroeste 22 Nordeste 0 -- -- 71
2020-06-17 06:00:00 17.2 9 Nordeste 26 Nordeste 0 -- -- 69
2020-06-17 05:00:00 17 6 Norte 27 Nordeste 0 -- -- 69
2020-06-17 04:00:00 17.5 12 Nordeste 22 Nordeste 0 -- -- 67
2020-06-17 03:00:00 16.4 5 Nordeste 13 Nordeste 0 -- -- 69
2020-06-17 02:00:00 17 3 Noroeste 14 Nordeste 0 -- -- 76
2020-06-17 01:00:00 17.2 3 Nordeste 9 Nordeste 0 -- -- 76
2020-06-17 00:00:00 17.5 3 Norte 14 Nordeste 0 -- -- 85
2020-06-16 23:00:00 19.2 4 Nordeste 19 Nordeste 0 -- -- 67
2020-06-16 22:00:00 19.3 5 Noroeste 10 Noroeste 0 -- -- 84
2020-06-16 21:00:00 20.1 0 Calma 9 Nordeste 0 -- -- 76
2020-06-16 20:00:00 20.4 5 Nordeste 21 Nordeste 0 -- -- 71
2020-06-16 19:00:00 21 10 Nordeste 22 Nordeste 0 -- -- 69
2020-06-16 18:00:00 21.4 5 Este 10 Sudeste 0 -- -- 70
2020-06-16 17:00:00 20 6 Oeste 14 Oeste 0.6 -- -- 90
2020-06-16 16:00:00 20.7 5 Oeste 10 Oeste 0.2 -- -- 81
2020-06-16 15:00:00 21.5 2 Norte 8 Norte 0 -- -- 70
2020-06-16 14:00:00 21.3 4 Noroeste 9 Oeste 0 -- -- 70
2020-06-16 13:00:00 19.6 4 Oeste 10 Oeste 0 -- -- 77
2020-06-16 12:00:00 19.7 3 Norte 13 Norte 0 -- -- 75
2020-06-16 11:00:00 18 4 Noroeste 12 Norte 0.2 -- -- 84
2020-06-16 10:00:00 17 4 Norte 14 Nordeste 1.4 -- -- 89
2020-06-16 09:00:00 17.5 8 Nordeste 19 Nordeste 0.8 -- -- 81
2020-06-16 08:00:00 18.1 11 Nordeste 28 Nordeste 0.4 -- -- 77
2020-06-16 07:00:00 19.2 10 Nordeste 25 Nordeste 0 -- -- 69
2020-06-16 06:00:00 19.6 12 Nordeste 29 Nordeste 0 -- -- 67
2020-06-16 05:00:00 19.9 8 Nordeste 19 Nordeste 0 -- -- 66
2020-06-16 04:00:00 19.4 7 Nordeste 17 Nordeste 0 -- -- 66
2020-06-16 03:00:00 18.5 5 Noroeste 14 Norte 0 -- -- 82
2020-06-16 02:00:00 20.4 6 Nordeste 18 Nordeste 0 -- -- 60
2020-06-16 01:00:00 19.9 4 Nordeste 13 Nordeste 0 -- -- 64
2020-06-16 00:00:00 19.9 4 Norte 9 Noroeste 0 -- -- 67
2020-06-15 23:00:00 19.1 5 Noroeste 9 Oeste 0 -- -- 81
2020-06-15 22:00:00 18.9 6 Noroeste 11 Norte 0 -- -- 86
2020-06-15 21:00:00 19.3 5 Noroeste 14 Noroeste 0 -- -- 84
2020-06-15 20:00:00 19.5 5 Norte 14 Norte 0 -- -- 82
2020-06-15 19:00:00 19.5 8 Noroeste 16 Noroeste 0.4 -- -- 86
2020-06-15 18:00:00 20.6 4 Oeste 8 Sudeste 0.8 -- -- 81
2020-06-15 17:00:00 21.2 4 Sudoeste 18 Sur 0.6 -- -- 73
2020-06-15 16:00:00 22.2 6 Sur 18 Sudeste 0.6 -- -- 71
2020-06-15 15:00:00 25 9 Sur 21 Sudoeste 0 -- -- 52
2020-06-15 14:00:00 25.3 6 Este 14 Norte 0 -- -- 47
2020-06-15 13:00:00 24.8 8 Este 18 Sudeste 0 -- -- 50
2020-06-15 12:00:00 23.9 8 Nordeste 18 Nordeste 0 -- -- 50
2020-06-15 11:00:00 24 8 Nordeste 19 Norte 0 -- -- 51
2020-06-15 10:00:00 22.8 6 Nordeste 27 Nordeste 0 -- -- 54
2020-06-15 09:00:00 20.8 12 Nordeste 29 Nordeste 0 -- -- 57
2020-06-15 08:00:00 18.7 13 Nordeste 32 Norte 0 -- -- 65
2020-06-15 07:00:00 18.6 15 Nordeste 32 Nordeste 0 -- -- 67
2020-06-15 06:00:00 19 14 Nordeste 29 Nordeste 0 -- -- 66
2020-06-15 05:00:00 19.4 14 Nordeste 28 Nordeste 0 -- -- 65
2020-06-15 04:00:00 19.8 14 Nordeste 30 Nordeste 0 -- -- 64
2020-06-15 03:00:00 20 7 Nordeste 22 Nordeste 0 -- -- 62
2020-06-15 02:00:00 20 4 Norte 10 Nordeste 0 -- -- 64
2020-06-15 01:00:00 21 3 Norte 10 Nordeste 0 -- -- 59
2020-06-15 00:00:00 21.3 3 Norte 10 Nordeste 0 -- -- 59
2020-06-14 23:00:00 21.9 6 Nordeste 18 Este 0 -- -- 55
2020-06-14 22:00:00 22.5 6 Nordeste 20 Norte 0 -- -- 52
2020-06-14 21:00:00 22.7 3 Norte 9 Norte 0 -- -- 61
2020-06-14 20:00:00 22.8 3 Sur 8 Este 0 -- -- 60
2020-06-14 19:00:00 22.8 4 Este 11 Este 0 -- -- 61
2020-06-14 18:00:00 22.3 5 Sudeste 13 Sudeste 0 -- -- 63
2020-06-14 17:00:00 23.1 6 Sudeste 18 Sudeste 0 -- -- 58
2020-06-14 16:00:00 23.9 5 Sur 20 Sudoeste 0 -- -- 53
2020-06-14 15:00:00 22.9 8 Sur 22 Sur 0 -- -- 56
2020-06-14 14:00:00 25.1 9 Sur 21 Sur 0 -- -- 50
2020-06-14 13:00:00 25.5 8 Sudoeste 22 Sudoeste 0 -- -- 46
2020-06-14 12:00:00 25.1 4 Sudoeste 12 Sur 0 -- -- 47
2020-06-14 11:00:00 23.9 5 Oeste 14 Oeste 0 -- -- 47
2020-06-14 10:00:00 22.7 6 Nordeste 16 Nordeste 0 -- -- 49
2020-06-14 09:00:00 21.3 6 Nordeste 23 Nordeste 0 -- -- 54
2020-06-14 08:00:00 19.3 8 Nordeste 23 Nordeste 0 -- -- 61
2020-06-14 07:00:00 18.1 5 Norte 21 Nordeste 0 -- -- 62
2020-06-14 06:00:00 18.5 10 Nordeste 23 Nordeste 0 -- -- 60
2020-06-14 05:00:00 17.4 5 Nordeste 15 Norte 0 -- -- 64
2020-06-14 04:00:00 16.8 3 Norte 10 Noroeste 0 -- -- 76
2020-06-14 03:00:00 17.4 4 Noroeste 11 Noroeste 0 -- -- 74
2020-06-14 02:00:00 18.1 5 Noroeste 9 Noroeste 0 -- -- 70
2020-06-14 01:00:00 18.2 3 Norte 10 Norte 0 -- -- 68
2020-06-14 00:00:00 18.2 4 Noroeste 13 Nordeste 0 -- -- 70
2020-06-13 23:00:00 18.4 8 Nordeste 23 Nordeste 0 -- -- 67
2020-06-13 22:00:00 18.5 5 Nordeste 28 Norte 0 -- -- 67
2020-06-13 21:00:00 19.3 12 Nordeste 31 Nordeste 0 -- -- 64
2020-06-13 20:00:00 21 14 Nordeste 30 Nordeste 0 -- -- 58
2020-06-13 19:00:00 23.1 11 Nordeste 31 Nordeste 0 -- -- 52
2020-06-13 18:00:00 24.4 12 Nordeste 22 Nordeste 0 -- -- 48
2020-06-13 17:00:00 23.1 5 Sur 19 Sudoeste 0 -- -- 64
2020-06-13 16:00:00 21.9 10 Sudoeste 22 Norte 0 -- -- 67
2020-06-13 15:00:00 21.7 11 Nordeste 36 Nordeste 0 -- -- 64
2020-06-13 14:00:00 24.1 16 Nordeste 40 Nordeste 0 -- -- 59
2020-06-13 13:00:00 23.4 7 Sudoeste 12 Sudoeste 0 -- -- 55
2020-06-13 12:00:00 21.6 3 Este 14 Sudeste 0 -- -- 62
2020-06-13 11:00:00 18.9 3 Sudeste 14 Sudoeste 0 -- -- 70
2020-06-13 10:00:00 16.8 3 Sudeste 20 Oeste 0 -- -- 75
2020-06-13 09:00:00 16 2 Oeste 6 Noroeste 0 -- -- 80
2020-06-13 08:00:00 15.5 2 Norte 6 Noroeste 0 -- -- 79
2020-06-13 07:00:00 15 3 Noroeste 13 Nordeste 0 -- -- 79
2020-06-13 06:00:00 14.8 5 Nordeste 15 Nordeste 0 -- -- 78
2020-06-13 05:00:00 15.2 3 Este 7 Nordeste 0 -- -- 79
2020-06-13 04:00:00 15.5 0 Calma 8 Norte 0 -- -- 69
2020-06-13 03:00:00 16.1 4 Noroeste 17 Oeste 0 -- -- 70
2020-06-13 02:00:00 17.3 9 Oeste 17 Oeste 0 -- -- 75
2020-06-13 01:00:00 18.3 10 Oeste 22 Oeste 0 -- -- 73
2020-06-13 00:00:00 18.8 3 Oeste 14 Sudoeste 0 -- -- 69
2020-06-12 23:00:00 19.9 4 Oeste 21 Oeste 0 -- -- 65
2020-06-12 22:00:00 21.3 10 Oeste 26 Oeste 0 -- -- 59
2020-06-12 21:00:00 23 14 Oeste 39 Oeste 0 -- -- 54
2020-06-12 20:00:00 24.6 18 Oeste 35 Oeste 0 -- -- 51
2020-06-12 19:00:00 26.5 18 Oeste 35 Oeste 0 -- -- 45
2020-06-12 18:00:00 27.9 15 Oeste 36 Oeste 0 -- -- 42
2020-06-12 17:00:00 28.1 13 Noroeste 34 Noroeste 0 -- -- 35
2020-06-12 16:00:00 28.1 12 Oeste 36 Noroeste 0 -- -- 35
2020-06-12 15:00:00 28.1 12 Oeste 36 Noroeste 0 -- -- 36
2020-06-12 14:00:00 27.6 13 Noroeste 36 Oeste 0 -- -- 38
2020-06-12 13:00:00 27 14 Oeste 30 Oeste 0 -- -- 39
2020-06-12 12:00:00 26.5 11 Oeste 25 Oeste 0 -- -- 41
2020-06-12 11:00:00 24.8 10 Sudoeste 22 Sudoeste 0 -- -- 60
2020-06-12 10:00:00 21 0 Calma 12 Oeste 0 -- -- 85
2020-06-12 09:00:00 19.9 6 Oeste 12 Sudoeste 0 -- -- 87
2020-06-12 08:00:00 19.2 4 Sur 6 Sudoeste 0 -- -- 95
2020-06-12 07:00:00 18.8 0 Calma 9 Oeste 0 -- -- 96
2020-06-12 06:00:00 18.6 0 Calma 4 Noroeste 0 -- -- 96
2020-06-12 05:00:00 18.6 0 Calma 5 Noroeste 0 -- -- 95
2020-06-12 04:00:00 18.7 0 Calma 5 Sudoeste 0 -- -- 95
2020-06-12 03:00:00 18.4 0 Calma 10 Sudoeste 0 -- -- 96
2020-06-12 02:00:00 18.6 5 Sudoeste 12 Sudoeste 0 -- -- 95
2020-06-12 01:00:00 18.8 4 Sur 12 Sudoeste 0 -- -- 94
2020-06-12 00:00:00 19 7 Sudoeste 13 Sudoeste 0 -- -- 93